CheckWX is a tool to help pilots better visualize weather data.  It is not intended as a substitute for an official pre-flight weather briefing.

02:05:09 UTC

EDDV TAF
Hannover Airport
Hannover, Germany
TAF COR EDDV 222301Z 2300/2324 10006KT 7000 BKN006 TEMPO 2300/2309 2500 BR BKN004 PROB40 TEMPO 2300/2308 0500 FG BKN001 PROB30 TEMPO 2300/2305 SCT006 BECMG 2308/2311 10011KT BKN012 TEMPO 2310/2316 10015G25KT TEMPO 2311/2320 BKN015 TEMPO 2320/2324 4000 BR BKN008

Nov-23@
00:00 UTC

Nov-23 @ 00:00 UTC

Nov-23@
08:00 UTC

Nov-23 @ 08:00 UTC

TAF COR EDDV 222301Z 2300/2324 10006KT 7000 BKN006
Wind
  • 100° at 6 KTS
Cloud Levels
  • Broken at 600' AGL

Nov-23@
00:00 UTC

Nov-23 @ 00:00 UTC

Nov-23@
05:00 UTC

Nov-23 @ 05:00 UTC

PROB30 TEMPO 2300/2305 SCT006

Temporary - 30% Likelihood

Temporary - 30% Likelihood during this time.

Cloud Levels
  • Scattered at 600' AGL

Nov-23@
00:00 UTC

Nov-23 @ 00:00 UTC

Nov-23@
08:00 UTC

Nov-23 @ 08:00 UTC

PROB40 TEMPO 2300/2308 0500 FG BKN001

Temporary - 40% Likelihood

Temporary - 40% Likelihood during this time.

Conditions
Fog
Cloud Levels
  • Broken at 100' AGL

Nov-23@
00:00 UTC

Nov-23 @ 00:00 UTC

Nov-23@
09:00 UTC

Nov-23 @ 09:00 UTC

TEMPO 2300/2309 2500 BR BKN004

Temporary

Temporary Changes expected for less than half the time period

Conditions
Mist
Cloud Levels
  • Broken at 400' AGL

Nov-23@
08:00 UTC

Nov-23 @ 08:00 UTC

Nov-24@
00:00 UTC

Nov-24 @ 00:00 UTC

BECMG 2308/2311 10011KT BKN012

Becoming

Becoming Conditions expected by Sat, Nov 23, 2019 @ 11:00 UTC

Wind
  • 100° at 11 KTS
Cloud Levels
  • Broken at 1,200' AGL

Nov-23@
10:00 UTC

Nov-23 @ 10:00 UTC

Nov-23@
16:00 UTC

Nov-23 @ 16:00 UTC

TEMPO 2310/2316 10015G25KT

Temporary

Temporary Changes expected for less than half the time period

Wind
  • 100° at 15 KTS
  • {Gusting to 25 KTS

Nov-23@
11:00 UTC

Nov-23 @ 11:00 UTC

Nov-23@
20:00 UTC

Nov-23 @ 20:00 UTC

TEMPO 2311/2320 BKN015

Temporary

Temporary Changes expected for less than half the time period

Cloud Levels
  • Broken at 1,500' AGL

Nov-23@
20:00 UTC

Nov-23 @ 20:00 UTC

Nov-24@
00:00 UTC

Nov-24 @ 00:00 UTC

TEMPO 2320/2324 4000 BR BKN008

Temporary

Temporary Changes expected for less than half the time period

Conditions
Mist
Cloud Levels
  • Broken at 800' AGL